Terminal Aerodrome Forecast
Issued by NWS

Home | Current Version | Previous Version | Text Only | Print | Product List | Glossary On
Versions: 1 2 3 4 5 6 7 8 9 10 11 12 13 14 15 16 17 18 19
000
FTAK31 PAFA 261159
TAFAUN
TAF
PAUN 261159Z 2612/2712 30008KT 6SM -RA BR BKN005 OVC010
      TEMPO 2612/2614 2SM -SHRA BR BKN004
     FM261400 33006KT 6SM -RA BR OVC010
     FM261600 33006KT P6SM -SHRA BKN015
     FM262100 33010KT P6SM VCSH SCT025 BKN035 OVC050=

USA.gov is the U.S. government's official web portal to all federal, state and local government web resources and services.